Time;durP1;ratioP1;P1;durP2;ratioP2;P2;SDS_P1;SDS_P2;PMS_P1;PMS_P2;Temp;Humidity;BMP_temperature;BMP_pressure;BME280_temperature;BME280_humidity;BME280_pressure;Samples;Min_cycle;Max_cycle;Signal;HPM_P1;HPM_P2
2021/08/04 03:33:36;;;;;;;;;;;;;;;;;;;;;
2021/08/04 03:50:28;;;;;;;;;;;;;;;;;;;;;
2021/08/04 03:52:56;;;;;;;2.50;1.97;;;15.40;99.90;;;;;;4876337;29;20515;-85
2021/08/04 03:55:25;;;;;;;2.27;2.10;;;15.40;99.90;;;;;;4972580;28;20466;-84
2021/08/04 03:57:52;;;;;;;3.73;2.67;;;15.40;99.90;;;;;;4992703;28;20513;-85
2021/08/04 04:00:19;;;;;;;2.70;2.47;;;15.40;99.90;;;;;;4992388;28;20460;-85
2021/08/04 04:02:45;;;;;;;2.93;2.63;;;15.50;99.90;;;;;;4992155;28;20490;-84
2021/08/04 04:05:17;;;;;;;3.37;3.07;;;15.50;99.90;;;;;;4992350;28;20452;-85
2021/08/04 04:24:15;;;;;;;3.53;2.67;;;15.50;99.90;;;;;;4859053;29;21001;-85
2021/08/04 04:26:42;;;;;;;2.50;2.20;;;15.50;99.90;;;;;;4934808;28;20490;-85
2021/08/04 04:29:11;;;;;;;2.03;1.93;;;15.50;99.90;;;;;;4991666;28;20774;-84
2021/08/04 04:35:04;;;;;;;2.93;2.10;;;15.50;99.90;;;;;;4891962;29;20455;-85
2021/08/04 04:37:33;;;;;;;3.53;2.73;;;15.50;99.90;;;;;;4944665;28;20460;-85
2021/08/04 04:43:28;;;;;;;;;;;;;;;;;;;;;
2021/08/04 05:05:07;;;;;;;3.10;2.33;;;15.80;99.90;;;;;;4825578;29;20445;-86
2021/08/04 05:07:39;;;;;;;2.53;2.23;;;15.90;99.90;;;;;;4944367;28;20521;-85
2021/08/04 05:10:06;;;;;;;2.33;2.13;;;15.90;99.90;;;;;;4991475;28;20451;-86
2021/08/04 05:38:23;;;;;;;;;;;;;;;;;;;;;
2021/08/04 06:20:18;;;;;;;;;;;;;;;;;;;;;
2021/08/04 06:22:55;;;;;;;2.10;1.80;;;16.70;99.90;;;;;;4902486;29;20518;-85
2021/08/04 06:25:22;;;;;;;2.60;2.40;;;16.70;99.90;;;;;;4972764;28;20465;-84
2021/08/04 06:27:49;;;;;;;3.53;3.10;;;16.70;99.90;;;;;;4992181;28;20527;-85
2021/08/04 06:30:16;;;;;;;2.40;2.20;;;16.80;99.90;;;;;;4988651;28;20473;-85
2021/08/04 06:32:44;;;;;;;2.50;2.30;;;16.70;99.90;;;;;;4989034;28;20512;-85
2021/08/04 06:35:11;;;;;;;2.93;2.67;;;16.80;99.90;;;;;;4988911;28;20946;-85
2021/08/04 06:37:38;;;;;;;3.60;2.43;;;16.80;99.90;;;;;;4990652;28;20448;-85
2021/08/04 06:40:06;;;;;;;2.00;1.80;;;16.90;99.90;;;;;;4986844;28;20449;-85
2021/08/04 06:42:33;;;;;;;2.50;2.30;;;16.80;99.90;;;;;;4989883;28;20476;-85
2021/08/04 06:45:00;;;;;;;2.70;2.50;;;16.90;99.90;;;;;;4990089;28;20811;-86
2021/08/04 06:47:27;;;;;;;3.10;2.53;;;16.90;99.90;;;;;;4990151;28;20529;-84
2021/08/04 06:49:55;;;;;;;2.23;2.07;;;17.10;99.90;;;;;;4989290;28;20447;-85
2021/08/04 06:52:22;;;;;;;6.13;3.03;;;17.10;99.90;;;;;;4988596;28;20457;-86
2021/08/04 06:54:51;;;;;;;2.60;2.40;;;17.10;99.90;;;;;;4989763;28;20471;-86
2021/08/04 06:57:18;;;;;;;2.40;2.20;;;17.20;99.90;;;;;;4989065;28;20536;-86
2021/08/04 07:06:37;;;;;;;;;;;;;;;;;;;;;
2021/08/04 09:14:09;;;;;;;3.63;1.90;;;22.50;94.10;;;;;;4809345;29;20472;-85
2021/08/04 09:16:37;;;;;;;1.90;1.70;;;22.70;94.40;;;;;;4919515;28;20459;-85
2021/08/04 09:19:16;;;;;;;2.00;1.80;;;22.90;93.20;;;;;;4981683;28;20455;-85
2021/08/04 09:21:43;;;;;;;2.10;1.70;;;22.90;92.60;;;;;;4981358;28;20481;-85
2021/08/04 09:24:11;;;;;;;2.10;2.00;;;23.00;92.30;;;;;;4981270;28;20505;-85
2021/08/04 09:26:40;;;;;;;2.53;1.93;;;22.90;92.10;;;;;;4983367;28;20536;-85
2021/08/04 09:29:11;;;;;;;2.50;2.07;;;22.90;92.80;;;;;;4980834;28;20810;-85
2021/08/04 09:31:51;;;;;;;2.63;1.90;;;23.00;92.70;;;;;;4981453;28;20481;-85
2021/08/04 09:34:33;;;;;;;3.50;1.93;;;23.00;92.50;;;;;;4981137;28;20467;-85
2021/08/04 09:37:02;;;;;;;3.57;2.00;;;23.00;92.90;;;;;;4981158;28;20540;-85
2021/08/04 09:39:29;;;;;;;3.43;3.23;;;22.80;92.90;;;;;;4981250;28;20461;-85
2021/08/04 09:41:56;;;;;;;2.00;1.90;;;22.80;92.10;;;;;;4981250;28;20482;-85
2021/08/04 09:44:24;;;;;;;2.50;2.30;;;22.60;91.30;;;;;;4980671;28;21034;-85
2021/08/04 09:47:05;;;;;;;1.73;1.63;;;22.50;91.70;;;;;;4985307;28;20454;-85
2021/08/04 09:49:32;;;;;;;2.20;2.00;;;22.30;91.70;;;;;;4985251;28;20461;-85
2021/08/04 09:52:04;;;;;;;2.10;1.47;;;22.10;91.80;;;;;;4984287;28;20465;-85
2021/08/04 09:54:37;;;;;;;2.60;2.20;;;21.90;93.00;;;;;;4984098;28;20495;-85
2021/08/04 09:57:04;;;;;;;2.53;2.03;;;21.70;93.60;;;;;;4984019;28;20453;-85
2021/08/04 09:59:32;;;;;;;6.87;2.43;;;21.60;93.80;;;;;;4983451;28;20462;-85
2021/08/04 10:01:59;;;;;;;2.07;1.87;;;21.50;94.10;;;;;;4984087;28;20543;-85
2021/08/04 10:04:27;;;;;;;2.70;1.87;;;21.40;94.50;;;;;;4983908;28;20485;-84
2021/08/04 10:07:06;;;;;;;2.50;2.23;;;21.30;94.90;;;;;;4983881;28;20819;-85
2021/08/04 10:09:34;;;;;;;1.83;1.73;;;21.20;95.10;;;;;;4984078;28;20773;-84
2021/08/04 10:12:02;;;;;;;7.47;2.70;;;21.20;95.40;;;;;;4983198;28;20487;-85
2021/08/04 10:14:29;;;;;;;2.60;2.23;;;21.20;95.30;;;;;;4983456;28;20453;-85
2021/08/04 10:16:59;;;;;;;2.13;1.90;;;21.30;95.20;;;;;;4983984;28;20524;-85
2021/08/04 10:19:31;;;;;;;2.27;2.07;;;21.20;95.10;;;;;;4983592;28;20770;-85
2021/08/04 10:22:13;;;;;;;4.40;2.63;;;21.30;95.30;;;;;;4984121;28;20482;-85
2021/08/04 10:24:43;;;;;;;2.13;2.03;;;21.40;95.30;;;;;;4982178;28;20484;-85
2021/08/04 10:27:09;;;;;;;4.20;2.87;;;21.50;95.00;;;;;;4984173;28;20452;-85
2021/08/04 10:29:37;;;;;;;1.80;1.70;;;21.60;94.70;;;;;;4984047;28;20848;-85
2021/08/04 10:32:06;;;;;;;2.50;2.30;;;21.40;94.50;;;;;;4982793;28;20477;-85
2021/08/04 10:34:33;;;;;;;3.00;2.43;;;21.60;94.40;;;;;;4983529;28;20453;-85
2021/08/04 10:37:00;;;;;;;2.10;1.90;;;21.80;94.40;;;;;;4983643;28;20471;-85
2021/08/04 10:39:28;;;;;;;2.03;1.83;;;22.00;94.50;;;;;;4983906;28;20578;-85
2021/08/04 10:42:04;;;;;;;3.27;2.43;;;22.00;94.40;;;;;;4982968;28;20473;-85
2021/08/04 10:44:31;;;;;;;2.00;1.90;;;22.10;93.40;;;;;;4983174;28;20484;-85
2021/08/04 10:46:59;;;;;;;3.63;1.90;;;22.00;92.70;;;;;;4983268;28;20457;-85
2021/08/04 10:49:30;;;;;;;1.97;1.80;;;22.00;93.00;;;;;;4983053;28;20822;-85
2021/08/04 10:52:15;;;;;;;2.20;2.10;;;22.00;93.70;;;;;;4982854;28;20997;-85
2021/08/04 10:55:10;;;;;;;1.70;1.60;;;22.00;93.20;;;;;;4983383;28;20453;-84
2021/08/04 10:58:17;;;;;;;2.00;1.80;;;21.90;94.60;;;;;;4959623;28;20506;-85
2021/08/04 11:00:44;;;;;;;1.40;1.30;;;21.90;94.60;;;;;;4983604;28;20453;-85
2021/08/04 11:03:45;;;;;;;3.00;2.27;;;22.00;93.10;;;;;;4982794;28;20472;-85
2021/08/04 11:06:14;;;;;;;2.63;1.73;;;22.30;93.50;;;;;;4983320;28;20511;-85
2021/08/04 11:08:46;;;;;;;2.30;1.93;;;22.60;92.50;;;;;;4983017;28;20466;-85
2021/08/04 11:11:46;;;;;;;1.90;1.80;;;22.90;92.20;;;;;;4983465;28;20881;-85
2021/08/04 11:14:37;;;;;;;1.97;1.87;;;23.10;92.50;;;;;;4984544;28;20443;-85
2021/08/04 11:17:05;;;;;;;1.40;1.30;;;23.30;91.40;;;;;;4984430;28;20545;-85
2021/08/04 11:19:34;;;;;;;1.33;1.23;;;23.50;92.10;;;;;;4982944;28;20448;-85
2021/08/04 11:22:25;;;;;;;3.33;1.70;;;23.80;91.00;;;;;;4982166;28;20474;-85
2021/08/04 13:39:19;;;;;;;;;;;;;;;;;;;;;
2021/08/04 14:01:34;;;;;;;;;;;;;;;;;;;;;
2021/08/04 14:55:13;;;;;;;;;;;;;;;;;;;;;
2021/08/04 14:58:22;;;;;;;2.60;1.90;;;21.80;92.20;;;;;;4846685;28;20544;-85
2021/08/04 16:05:09;;;;;;;4.90;2.10;;;21.80;93.30;;;;;;4858575;29;20500;-85
2021/08/04 16:07:36;;;;;;;2.13;1.97;;;21.80;92.90;;;;;;4934439;29;20458;-85
2021/08/04 16:10:02;;;;;;;5.17;1.97;;;21.80;93.00;;;;;;4964290;28;20460;-85
2021/08/04 16:12:29;;;;;;;2.67;2.47;;;21.80;92.80;;;;;;4981685;28;20560;-85
2021/08/04 16:14:56;;;;;;;2.30;2.10;;;21.70;93.20;;;;;;4981874;28;20485;-85
2021/08/04 16:17:23;;;;;;;2.33;2.07;;;21.70;93.70;;;;;;4982440;28;20456;-85
2021/08/04 16:19:50;;;;;;;2.10;2.00;;;21.60;94.30;;;;;;4982224;28;20458;-84
2021/08/04 16:22:18;;;;;;;2.47;2.27;;;21.60;94.80;;;;;;4981398;28;20475;-85
2021/08/04 16:24:45;;;;;;;2.40;2.20;;;21.60;95.30;;;;;;4982416;28;20457;-85
2021/08/04 16:27:12;;;;;;;2.10;1.90;;;21.60;95.60;;;;;;4982216;28;20487;-85
2021/08/04 16:29:39;;;;;;;2.17;1.70;;;21.70;95.60;;;;;;4982792;28;20467;-85
2021/08/04 16:32:07;;;;;;;2.60;2.40;;;21.70;95.50;;;;;;4982604;28;20490;-85
2021/08/04 16:34:36;;;;;;;2.27;2.17;;;21.70;95.70;;;;;;4982009;28;20527;-85
2021/08/04 16:37:03;;;;;;;2.90;2.20;;;21.60;96.10;;;;;;4985945;28;20466;-85
2021/08/04 16:39:31;;;;;;;2.20;2.00;;;21.40;96.60;;;;;;4985763;28;20459;-84
2021/08/04 16:41:58;;;;;;;13.80;2.90;;;21.20;97.30;;;;;;4984903;28;20483;-84
2021/08/04 16:44:25;;;;;;;2.00;1.90;;;21.00;97.70;;;;;;4985986;28;20456;-85
2021/08/04 16:46:53;;;;;;;2.90;2.33;;;20.70;98.50;;;;;;4984731;28;20498;-84
2021/08/04 16:49:20;;;;;;;3.80;2.73;;;20.70;99.20;;;;;;4986071;28;20460;-85
2021/08/04 16:51:49;;;;;;;2.50;2.03;;;20.60;99.50;;;;;;4984924;28;20483;-84
2021/08/04 16:54:15;;;;;;;4.20;2.33;;;20.60;99.80;;;;;;4985978;28;20530;-85
2021/08/04 16:56:43;;;;;;;4.17;3.00;;;20.40;99.90;;;;;;4985067;28;20456;-85
2021/08/04 16:59:15;;;;;;;2.53;2.40;;;20.10;99.90;;;;;;4985142;28;20453;-85
2021/08/04 17:01:44;;;;;;;2.60;2.40;;;20.10;99.90;;;;;;4985293;28;20482;-84
2021/08/04 17:04:12;;;;;;;2.50;2.40;;;19.90;99.90;;;;;;4985285;28;20461;-85
2021/08/04 17:06:38;;;;;;;2.03;1.93;;;19.80;99.90;;;;;;4985306;28;20495;-85
2021/08/04 17:09:05;;;;;;;3.23;2.73;;;19.80;99.90;;;;;;4985507;28;20480;-85
2021/08/04 17:11:33;;;;;;;2.57;2.33;;;19.70;99.90;;;;;;4984370;28;20531;-84
2021/08/04 17:14:02;;;;;;;2.33;2.17;;;19.70;99.90;;;;;;4984880;28;20550;-84
2021/08/04 17:16:29;;;;;;;2.70;2.43;;;19.70;99.90;;;;;;4987938;28;20451;-84
2021/08/04 17:18:57;;;;;;;3.07;2.50;;;19.60;99.90;;;;;;4994480;28;20459;-83
2021/08/04 17:21:24;;;;;;;2.67;2.20;;;19.40;99.90;;;;;;4992417;28;20463;-84
2021/08/04 17:23:50;;;;;;;3.23;2.90;;;19.30;99.90;;;;;;4986184;28;20451;-84
2021/08/04 17:26:17;;;;;;;2.67;2.47;;;19.20;99.90;;;;;;4984568;28;20486;-84
2021/08/04 17:28:48;;;;;;;2.60;2.40;;;19.20;99.90;;;;;;4985461;28;20462;-85
2021/08/04 17:31:16;;;;;;;2.20;2.10;;;19.20;99.90;;;;;;4984783;28;20499;-85
2021/08/04 17:33:57;;;;;;;3.33;3.13;;;19.20;99.90;;;;;;4985971;28;20976;-85
2021/08/04 17:36:25;;;;;;;2.80;2.60;;;19.20;99.90;;;;;;4984795;28;20466;-85
2021/08/04 17:38:55;;;;;;;4.03;2.43;;;19.10;99.90;;;;;;4985049;28;20523;-85
2021/08/04 17:41:22;;;;;;;2.67;2.10;;;19.10;99.90;;;;;;4984584;28;20975;-84
2021/08/04 17:43:48;;;;;;;3.20;2.70;;;19.10;99.90;;;;;;4985142;28;20450;-85
2021/08/04 17:46:19;;;;;;;3.70;2.60;;;19.20;99.90;;;;;;4983803;28;20487;-84
2021/08/04 17:48:46;;;;;;;3.10;2.77;;;19.20;99.90;;;;;;4986068;28;20494;-85
2021/08/04 17:51:16;;;;;;;3.37;2.60;;;19.10;99.90;;;;;;4985421;28;20457;-84
2021/08/04 17:53:44;;;;;;;2.63;2.50;;;19.10;99.90;;;;;;4985156;28;20462;-85
2021/08/04 17:56:11;;;;;;;2.37;2.27;;;19.10;99.90;;;;;;4985461;28;20444;-85
2021/08/04 17:58:38;;;;;;;2.70;2.50;;;19.00;99.90;;;;;;4985194;28;20463;-84
2021/08/04 18:01:06;;;;;;;2.90;2.47;;;19.10;99.90;;;;;;4984583;28;20451;-84
2021/08/04 18:03:34;;;;;;;2.20;2.10;;;19.10;99.90;;;;;;4984628;28;20525;-85
2021/08/04 18:06:03;;;;;;;3.00;2.70;;;19.20;99.90;;;;;;4985034;28;20521;-85
2021/08/04 18:08:34;;;;;;;2.77;2.57;;;19.20;99.90;;;;;;4984787;28;20551;-84
2021/08/04 18:11:02;;;;;;;3.07;2.67;;;19.10;99.90;;;;;;4985420;28;20447;-85
2021/08/04 18:13:34;;;;;;;3.83;2.60;;;19.00;99.90;;;;;;4985150;28;20479;-84
2021/08/04 18:16:01;;;;;;;3.27;2.80;;;19.10;99.90;;;;;;4986435;28;20482;-84
2021/08/04 18:18:28;;;;;;;2.93;2.70;;;19.10;99.90;;;;;;4987839;28;20458;-84
2021/08/04 18:20:56;;;;;;;2.30;2.13;;;19.20;99.90;;;;;;4989104;28;20463;-84
2021/08/04 18:23:23;;;;;;;2.47;2.37;;;19.10;99.90;;;;;;4987786;28;20481;-84
2021/08/04 18:25:50;;;;;;;2.20;2.07;;;19.00;99.90;;;;;;4990283;28;20463;-84
2021/08/04 18:28:17;;;;;;;2.70;2.50;;;18.90;99.90;;;;;;4990181;28;20465;-84
2021/08/04 18:30:44;;;;;;;2.50;2.30;;;18.90;99.90;;;;;;4990724;28;20450;-84
2021/08/04 18:33:11;;;;;;;3.20;2.50;;;18.80;99.90;;;;;;4990630;28;20589;-83
2021/08/04 18:35:38;;;;;;;3.10;2.80;;;18.70;99.90;;;;;;4991463;28;20461;-83
2021/08/04 18:38:06;;;;;;;2.40;2.23;;;18.80;99.90;;;;;;4987674;28;20433;-86
2021/08/04 18:40:33;;;;;;;2.40;2.23;;;18.70;99.90;;;;;;4985735;28;20813;-85
2021/08/04 18:43:00;;;;;;;2.50;2.30;;;18.70;99.90;;;;;;4983856;28;20478;-85
2021/08/04 18:45:29;;;;;;;2.10;1.90;;;18.70;99.90;;;;;;4983986;28;20447;-85
2021/08/04 18:47:56;;;;;;;2.60;2.40;;;18.60;99.90;;;;;;4984868;28;20496;-87
2021/08/04 18:50:23;;;;;;;2.90;2.67;;;18.40;99.90;;;;;;4984091;28;20463;-83
2021/08/04 18:52:51;;;;;;;2.70;2.43;;;18.30;99.90;;;;;;4985420;28;20485;-87
2021/08/04 18:55:20;;;;;;;2.63;2.40;;;18.30;99.90;;;;;;4987862;28;20505;-85
2021/08/04 18:57:47;;;;;;;2.93;2.73;;;18.20;99.90;;;;;;4985589;28;20453;-86
2021/08/04 19:00:14;;;;;;;1.83;1.73;;;18.20;99.90;;;;;;4985857;28;20962;-86
2021/08/04 19:02:59;;;;;;;3.43;2.50;;;18.10;99.90;;;;;;4986873;28;20511;-87
2021/08/04 19:05:28;;;;;;;2.73;2.47;;;18.00;99.90;;;;;;4991215;28;20441;-83
2021/08/04 19:07:55;;;;;;;3.33;3.07;;;18.00;99.90;;;;;;4985998;28;20504;-86
2021/08/04 19:10:24;;;;;;;3.30;2.60;;;18.00;99.90;;;;;;4984707;28;20988;-86
2021/08/04 19:12:51;;;;;;;3.27;2.97;;;18.00;99.90;;;;;;4987062;28;20537;-85
2021/08/04 19:15:20;;;;;;;2.40;2.20;;;18.00;99.90;;;;;;4987949;28;20457;-85
2021/08/04 19:17:48;;;;;;;2.40;2.27;;;18.00;99.90;;;;;;4988082;28;20518;-84
2021/08/04 19:20:17;;;;;;;3.13;2.87;;;18.00;99.90;;;;;;4985751;28;20455;-85
2021/08/04 19:22:44;;;;;;;2.97;2.77;;;18.00;99.90;;;;;;4989327;28;20494;-84
2021/08/04 19:25:12;;;;;;;2.67;2.47;;;18.10;99.90;;;;;;4988224;28;20451;-84
2021/08/04 19:27:42;;;;;;;3.17;2.90;;;17.90;99.90;;;;;;4985894;28;20494;-85
2021/08/04 19:30:10;;;;;;;2.77;2.50;;;17.80;99.90;;;;;;4987246;28;20549;-86
2021/08/04 19:32:37;;;;;;;3.57;3.00;;;17.70;99.90;;;;;;4986263;28;20470;-84
2021/08/04 19:35:05;;;;;;;2.60;2.40;;;17.80;99.90;;;;;;4989135;28;20491;-85
2021/08/04 19:37:33;;;;;;;2.97;2.70;;;17.80;99.90;;;;;;4991055;28;20540;-87
2021/08/04 19:40:00;;;;;;;2.90;2.70;;;17.80;99.90;;;;;;4989476;28;20464;-87
2021/08/04 19:42:27;;;;;;;3.47;3.27;;;17.70;99.90;;;;;;4988162;28;20476;-86
2021/08/04 19:44:55;;;;;;;4.27;3.87;;;17.70;99.90;;;;;;4984181;28;20485;-86
2021/08/04 19:47:24;;;;;;;4.60;3.17;;;17.70;99.90;;;;;;4983818;28;20839;-84
2021/08/04 19:49:51;;;;;;;3.37;3.17;;;17.60;99.90;;;;;;4984259;28;20457;-87
2021/08/04 19:52:21;;;;;;;3.00;2.70;;;17.60;99.90;;;;;;4990120;28;20474;-83
2021/08/04 19:54:47;;;;;;;3.10;2.80;;;17.60;99.90;;;;;;4990633;28;20556;-85
2021/08/04 19:57:15;;;;;;;3.80;2.50;;;17.50;99.90;;;;;;4985722;28;20550;-85
2021/08/04 19:59:42;;;;;;;3.03;2.83;;;17.50;99.90;;;;;;4985144;28;20458;-84
2021/08/04 20:02:11;;;;;;;3.00;2.80;;;17.50;99.90;;;;;;4990643;28;20553;-84
2021/08/04 20:04:39;;;;;;;3.50;3.20;;;17.50;99.90;;;;;;4988555;28;20461;-84
2021/08/04 20:07:06;;;;;;;9.00;4.10;;;17.50;99.90;;;;;;4986888;28;20480;-84
2021/08/04 20:09:37;;;;;;;3.23;2.87;;;17.50;99.90;;;;;;4986072;28;20833;-85
2021/08/04 20:12:05;;;;;;;2.90;2.57;;;17.50;99.90;;;;;;4988464;28;20477;-87
2021/08/04 20:14:32;;;;;;;3.10;2.90;;;17.40;99.90;;;;;;4991367;28;20743;-84
2021/08/04 20:17:01;;;;;;;3.30;3.00;;;17.40;99.90;;;;;;4991461;28;20473;-84
2021/08/04 20:19:33;;;;;;;3.40;3.10;;;17.40;99.90;;;;;;4991965;28;20458;-86
2021/08/04 20:22:06;;;;;;;3.90;3.60;;;17.40;99.90;;;;;;4989459;28;20469;-87
2021/08/04 20:24:51;;;;;;;;;;;;;;;;;;;;;
2021/08/04 20:40:45;;;;;;;2.23;2.03;;;16.90;99.90;;;;;;4658115;30;20855;-85
2021/08/04 20:43:12;;;;;;;2.90;2.40;;;17.00;99.90;;;;;;4779718;29;20486;-86
2021/08/04 20:45:39;;;;;;;2.87;2.67;;;17.10;99.90;;;;;;4905222;29;20465;-85
2021/08/04 20:48:07;;;;;;;2.63;2.03;;;17.00;99.90;;;;;;4947433;28;20547;-85
2021/08/04 20:50:33;;;;;;;3.33;3.03;;;17.00;99.90;;;;;;4986296;28;20484;-86
2021/08/04 20:53:00;;;;;;;2.57;2.40;;;17.10;99.90;;;;;;4986588;28;20493;-86
2021/08/04 20:55:27;;;;;;;2.30;2.20;;;17.10;99.90;;;;;;4986917;28;20457;-85
2021/08/04 20:57:57;;;;;;;2.90;2.57;;;17.10;99.90;;;;;;4987087;28;20539;-85
2021/08/04 21:00:24;;;;;;;3.27;2.97;;;17.10;99.90;;;;;;4986345;28;20468;-85
2021/08/04 21:02:51;;;;;;;3.37;3.07;;;17.10;99.90;;;;;;4985640;28;20500;-84
2021/08/04 21:05:18;;;;;;;4.37;2.40;;;17.00;99.90;;;;;;4986145;28;20475;-84
2021/08/04 21:07:44;;;;;;;2.60;2.40;;;17.10;99.90;;;;;;4986272;28;20489;-84
2021/08/04 21:10:12;;;;;;;2.90;2.63;;;17.10;99.90;;;;;;4988103;28;20487;-85
2021/08/04 21:12:41;;;;;;;3.00;2.47;;;17.10;99.90;;;;;;4986750;28;20480;-84
2021/08/04 21:15:11;;;;;;;2.37;2.27;;;17.00;99.90;;;;;;4988491;28;20468;-84
2021/08/04 21:17:39;;;;;;;5.37;2.30;;;17.00;99.90;;;;;;4987246;28;20448;-87
2021/08/04 21:20:07;;;;;;;2.93;2.67;;;17.00;99.90;;;;;;4987460;28;20456;-84
2021/08/04 21:22:34;;;;;;;3.23;2.97;;;16.80;99.90;;;;;;4986456;28;20473;-84
2021/08/04 21:25:02;;;;;;;3.10;2.90;;;16.80;99.90;;;;;;4987813;28;20454;-85
2021/08/04 21:27:29;;;;;;;3.27;2.77;;;16.80;99.90;;;;;;4988067;28;20480;-85
2021/08/04 21:29:56;;;;;;;2.57;2.37;;;16.80;99.90;;;;;;4988114;28;20464;-85
2021/08/04 21:32:24;;;;;;;6.00;3.03;;;16.70;99.90;;;;;;4987700;28;20853;-84
2021/08/04 21:34:51;;;;;;;3.03;2.70;;;16.60;99.90;;;;;;4991516;28;20463;-85
2021/08/04 21:37:21;;;;;;;2.03;1.93;;;16.50;99.90;;;;;;4997533;28;20441;-83
